sensor_id;sensor_type;location;lat;lon;timestamp;pressure;altitude;pressure_sealevel;temperature;humidity
11830;BME280;5972;42.134;24.718;2022-08-23T00:02:03;98942.16;;;23.01;100.00
11830;BME280;5972;42.134;24.718;2022-08-23T00:04:34;98955.81;;;23.05;100.00
11830;BME280;5972;42.134;24.718;2022-08-23T00:07:02;98960.56;;;23.04;100.00
11830;BME280;5972;42.134;24.718;2022-08-23T00:09:31;98942.34;;;22.94;100.00
11830;BME280;5972;42.134;24.718;2022-08-23T00:12:08;98958.38;;;22.99;100.00
11830;BME280;5972;42.134;24.718;2022-08-23T00:14:42;98961.13;;;22.99;100.00
11830;BME280;5972;42.134;24.718;2022-08-23T00:17:09;98965.53;;;23.09;100.00
11830;BME280;5972;42.134;24.718;2022-08-23T00:19:37;98963.91;;;23.12;100.00
11830;BME280;5972;42.134;24.718;2022-08-23T00:22:05;98948.41;;;23.02;100.00
11830;BME280;5972;42.134;24.718;2022-08-23T00:24:33;98964.13;;;23.17;100.00
11830;BME280;5972;42.134;24.718;2022-08-23T00:27:02;98962.22;;;23.14;100.00
11830;BME280;5972;42.134;24.718;2022-08-23T00:29:34;98965.97;;;23.08;100.00
11830;BME280;5972;42.134;24.718;2022-08-23T00:32:03;98968.41;;;23.06;100.00
11830;BME280;5972;42.134;24.718;2022-08-23T00:34:32;98967.28;;;23.03;100.00
11830;BME280;5972;42.134;24.718;2022-08-23T00:36:59;98973.03;;;22.96;100.00
11830;BME280;5972;42.134;24.718;2022-08-23T00:39:26;98973.13;;;22.93;100.00
11830;BME280;5972;42.134;24.718;2022-08-23T00:41:57;98980.75;;;22.89;100.00
11830;BME280;5972;42.134;24.718;2022-08-23T00:44:29;98979.97;;;22.88;100.00
11830;BME280;5972;42.134;24.718;2022-08-23T00:47:19;98993.00;;;22.88;100.00
11830;BME280;5972;42.134;24.718;2022-08-23T00:50:17;99003.38;;;22.96;100.00
11830;BME280;5972;42.134;24.718;2022-08-23T00:52:51;99004.50;;;22.99;100.00
11830;BME280;5972;42.134;24.718;2022-08-23T00:55:24;99016.53;;;23.05;100.00
11830;BME280;5972;42.134;24.718;2022-08-23T00:57:51;99020.19;;;23.14;100.00
11830;BME280;5972;42.134;24.718;2022-08-23T01:00:18;99013.44;;;23.15;100.00
11830;BME280;5972;42.134;24.718;2022-08-23T01:02:47;99002.63;;;23.08;100.00
11830;BME280;5972;42.134;24.718;2022-08-23T01:05:14;99021.63;;;23.19;100.00
11830;BME280;5972;42.134;24.718;2022-08-23T01:07:46;99012.03;;;23.24;100.00
11830;BME280;5972;42.134;24.718;2022-08-23T01:10:20;99019.84;;;23.25;100.00
11830;BME280;5972;42.134;24.718;2022-08-23T01:12:52;99012.03;;;23.24;100.00
11830;BME280;5972;42.134;24.718;2022-08-23T01:15:24;99009.94;;;23.28;100.00
11830;BME280;5972;42.134;24.718;2022-08-23T01:17:57;99010.34;;;23.26;100.00
11830;BME280;5972;42.134;24.718;2022-08-23T01:20:31;99004.94;;;23.35;100.00
11830;BME280;5972;42.134;24.718;2022-08-23T01:23:05;99002.66;;;23.34;100.00
11830;BME280;5972;42.134;24.718;2022-08-23T01:25:36;99013.56;;;23.25;100.00
11830;BME280;5972;42.134;24.718;2022-08-23T01:28:03;99012.03;;;23.24;100.00
11830;BME280;5972;42.134;24.718;2022-08-23T01:30:32;99014.66;;;23.14;100.00
11830;BME280;5972;42.134;24.718;2022-08-23T01:33:01;99025.63;;;23.18;100.00
11830;BME280;5972;42.134;24.718;2022-08-23T01:35:33;99026.34;;;23.18;100.00
11830;BME280;5972;42.134;24.718;2022-08-23T01:38:02;99019.97;;;23.21;100.00
11830;BME280;5972;42.134;24.718;2022-08-23T01:40:29;99021.06;;;23.24;100.00
11830;BME280;5972;42.134;24.718;2022-08-23T01:42:59;99033.00;;;23.21;100.00
11830;BME280;5972;42.134;24.718;2022-08-23T01:45:27;99013.66;;;23.08;100.00
11830;BME280;5972;42.134;24.718;2022-08-23T01:47:54;99027.13;;;23.19;100.00
11830;BME280;5972;42.134;24.718;2022-08-23T01:50:21;98999.00;;;23.11;100.00
11830;BME280;5972;42.134;24.718;2022-08-23T01:52:48;99004.28;;;23.18;100.00
11830;BME280;5972;42.134;24.718;2022-08-23T01:55:15;98992.78;;;23.07;100.00
11830;BME280;5972;42.134;24.718;2022-08-23T01:57:43;98983.84;;;23.03;100.00
11830;BME280;5972;42.134;24.718;2022-08-23T02:00:12;98991.34;;;23.03;100.00
11830;BME280;5972;42.134;24.718;2022-08-23T02:02:40;98995.31;;;23.02;100.00
11830;BME280;5972;42.134;24.718;2022-08-23T02:05:08;98981.97;;;22.88;100.00
11830;BME280;5972;42.134;24.718;2022-08-23T02:07:35;98999.63;;;23.03;100.00
11830;BME280;5972;42.134;24.718;2022-08-23T02:10:03;98995.00;;;23.00;100.00
11830;BME280;5972;42.134;24.718;2022-08-23T02:12:30;99001.97;;;23.04;100.00
11830;BME280;5972;42.134;24.718;2022-08-23T02:14:57;99005.84;;;23.07;100.00
11830;BME280;5972;42.134;24.718;2022-08-23T02:17:25;99012.22;;;23.04;100.00
11830;BME280;5972;42.134;24.718;2022-08-23T02:19:53;99020.28;;;22.98;100.00
11830;BME280;5972;42.134;24.718;2022-08-23T02:22:20;99018.94;;;22.90;100.00
11830;BME280;5972;42.134;24.718;2022-08-23T02:24:47;99013.19;;;22.85;100.00
11830;BME280;5972;42.134;24.718;2022-08-23T02:27:16;99029.28;;;22.86;100.00
11830;BME280;5972;42.134;24.718;2022-08-23T02:29:44;99034.56;;;22.80;100.00
11830;BME280;5972;42.134;24.718;2022-08-23T02:32:14;99041.66;;;22.82;100.00
11830;BME280;5972;42.134;24.718;2022-08-23T02:34:44;99039.22;;;22.84;100.00
11830;BME280;5972;42.134;24.718;2022-08-23T02:37:12;99058.53;;;22.84;100.00
11830;BME280;5972;42.134;24.718;2022-08-23T02:39:40;99053.81;;;22.84;100.00
11830;BME280;5972;42.134;24.718;2022-08-23T02:42:07;99060.41;;;22.87;100.00
11830;BME280;5972;42.134;24.718;2022-08-23T02:44:35;99061.63;;;22.86;100.00
11830;BME280;5972;42.134;24.718;2022-08-23T02:47:02;99067.84;;;22.90;100.00
11830;BME280;5972;42.134;24.718;2022-08-23T02:49:32;99049.72;;;22.89;100.00
11830;BME280;5972;42.134;24.718;2022-08-23T02:52:00;99054.59;;;22.85;100.00
11830;BME280;5972;42.134;24.718;2022-08-23T02:54:27;99055.25;;;22.89;100.00
11830;BME280;5972;42.134;24.718;2022-08-23T02:56:53;99050.81;;;22.78;100.00
11830;BME280;5972;42.134;24.718;2022-08-23T02:59:20;99051.13;;;22.80;100.00
11830;BME280;5972;42.134;24.718;2022-08-23T03:01:47;99046.25;;;22.72;100.00
11830;BME280;5972;42.134;24.718;2022-08-23T03:04:14;99053.56;;;22.78;100.00
11830;BME280;5972;42.134;24.718;2022-08-23T03:06:41;99050.28;;;22.84;100.00
11830;BME280;5972;42.134;24.718;2022-08-23T03:09:10;99029.16;;;22.77;100.00
11830;BME280;5972;42.134;24.718;2022-08-23T03:11:37;99040.22;;;22.77;100.00
11830;BME280;5972;42.134;24.718;2022-08-23T03:14:04;99042.53;;;22.78;100.00
11830;BME280;5972;42.134;24.718;2022-08-23T03:16:31;99054.34;;;22.79;100.00
11830;BME280;5972;42.134;24.718;2022-08-23T03:18:58;99049.38;;;22.87;100.00
11830;BME280;5972;42.134;24.718;2022-08-23T03:21:26;99038.38;;;22.70;100.00
11830;BME280;5972;42.134;24.718;2022-08-23T03:23:53;99060.38;;;22.74;100.00
11830;BME280;5972;42.134;24.718;2022-08-23T03:26:22;99060.22;;;22.65;100.00
11830;BME280;5972;42.134;24.718;2022-08-23T03:28:49;99045.50;;;22.55;100.00
11830;BME280;5972;42.134;24.718;2022-08-23T03:31:16;99057.22;;;22.59;100.00
11830;BME280;5972;42.134;24.718;2022-08-23T03:33:43;99058.09;;;22.56;100.00
11830;BME280;5972;42.134;24.718;2022-08-23T03:36:11;99062.84;;;22.56;100.00
11830;BME280;5972;42.134;24.718;2022-08-23T03:38:39;99065.66;;;22.52;100.00
11830;BME280;5972;42.134;24.718;2022-08-23T03:41:07;99060.06;;;22.56;100.00
11830;BME280;5972;42.134;24.718;2022-08-23T03:43:35;99053.44;;;22.53;100.00
11830;BME280;5972;42.134;24.718;2022-08-23T03:46:03;99062.06;;;22.55;100.00
11830;BME280;5972;42.134;24.718;2022-08-23T03:48:30;99047.00;;;22.44;100.00
11830;BME280;5972;42.134;24.718;2022-08-23T03:50:57;99061.47;;;22.48;100.00
11830;BME280;5972;42.134;24.718;2022-08-23T03:53:24;99054.94;;;22.42;100.00
11830;BME280;5972;42.134;24.718;2022-08-23T03:55:52;99061.16;;;22.46;100.00
11830;BME280;5972;42.134;24.718;2022-08-23T03:58:20;99064.66;;;22.46;100.00
11830;BME280;5972;42.134;24.718;2022-08-23T04:00:49;99067.41;;;22.46;100.00
11830;BME280;5972;42.134;24.718;2022-08-23T04:03:16;99071.03;;;22.43;100.00
11830;BME280;5972;42.134;24.718;2022-08-23T04:05:43;99069.66;;;22.35;100.00
11830;BME280;5972;42.134;24.718;2022-08-23T04:08:10;99069.50;;;22.42;100.00
11830;BME280;5972;42.134;24.718;2022-08-23T04:10:38;99063.03;;;22.49;100.00
11830;BME280;5972;42.134;24.718;2022-08-23T04:13:05;99072.59;;;22.44;100.00
11830;BME280;5972;42.134;24.718;2022-08-23T04:15:33;99076.63;;;22.56;100.00
11830;BME280;5972;42.134;24.718;2022-08-23T04:18:02;99079.91;;;22.51;100.00
11830;BME280;5972;42.134;24.718;2022-08-23T04:20:29;99077.06;;;22.54;100.00
11830;BME280;5972;42.134;24.718;2022-08-23T04:22:56;99078.69;;;22.52;100.00
11830;BME280;5972;42.134;24.718;2022-08-23T04:25:23;99087.13;;;22.61;100.00
11830;BME280;5972;42.134;24.718;2022-08-23T04:27:50;99074.88;;;22.62;100.00
11830;BME280;5972;42.134;24.718;2022-08-23T04:30:17;99078.97;;;22.70;100.00
11830;BME280;5972;42.134;24.718;2022-08-23T04:32:45;99079.16;;;22.79;100.00
11830;BME280;5972;42.134;24.718;2022-08-23T04:35:14;99074.97;;;22.87;100.00
11830;BME280;5972;42.134;24.718;2022-08-23T04:37:41;99071.59;;;22.96;100.00
11830;BME280;5972;42.134;24.718;2022-08-23T04:40:10;99071.59;;;22.96;100.00
11830;BME280;5972;42.134;24.718;2022-08-23T04:42:55;99063.09;;;22.90;100.00
11830;BME280;5972;42.134;24.718;2022-08-23T04:45:22;99076.03;;;23.06;100.00
11830;BME280;5972;42.134;24.718;2022-08-23T04:47:49;99088.63;;;23.07;100.00
11830;BME280;5972;42.134;24.718;2022-08-23T04:50:18;99081.97;;;23.04;100.00
11830;BME280;5972;42.134;24.718;2022-08-23T04:52:46;99080.91;;;23.14;100.00
11830;BME280;5972;42.134;24.718;2022-08-23T04:55:12;99073.03;;;23.13;100.00
11830;BME280;5972;42.134;24.718;2022-08-23T04:57:39;99079.91;;;23.21;100.00
11830;BME280;5972;42.134;24.718;2022-08-23T05:00:08;99074.06;;;23.32;100.00
11830;BME280;5972;42.134;24.718;2022-08-23T05:02:37;99083.41;;;23.50;100.00
11830;BME280;5972;42.134;24.718;2022-08-23T05:05:05;99081.63;;;23.69;100.00
11830;BME280;5972;42.134;24.718;2022-08-23T05:07:35;99079.63;;;23.95;100.00
11830;BME280;5972;42.134;24.718;2022-08-23T05:10:02;99088.00;;;24.29;100.00
11830;BME280;5972;42.134;24.718;2022-08-23T05:12:29;99100.78;;;24.70;100.00
11830;BME280;5972;42.134;24.718;2022-08-23T05:14:56;99093.44;;;25.20;100.00
11830;BME280;5972;42.134;24.718;2022-08-23T05:17:23;99106.88;;;25.83;100.00
11830;BME280;5972;42.134;24.718;2022-08-23T05:19:49;99120.16;;;26.92;100.00
11830;BME280;5972;42.134;24.718;2022-08-23T05:22:19;99126.44;;;27.20;100.00
11830;BME280;5972;42.134;24.718;2022-08-23T05:24:47;99133.75;;;27.68;100.00
11830;BME280;5972;42.134;24.718;2022-08-23T05:27:14;99133.97;;;29.08;100.00
11830;BME280;5972;42.134;24.718;2022-08-23T05:29:41;99116.00;;;29.67;100.00
11830;BME280;5972;42.134;24.718;2022-08-23T05:32:08;99106.72;;;30.26;100.00
11830;BME280;5972;42.134;24.718;2022-08-23T05:34:36;99072.31;;;31.26;89.85
11830;BME280;5972;42.134;24.718;2022-08-23T05:37:03;99078.38;;;32.36;80.10
11830;BME280;5972;42.134;24.718;2022-08-23T05:39:30;99085.22;;;33.27;70.99
11830;BME280;5972;42.134;24.718;2022-08-23T05:41:58;99076.22;;;34.01;63.78
11830;BME280;5972;42.134;24.718;2022-08-23T05:44:25;99084.81;;;34.37;61.70
11830;BME280;5972;42.134;24.718;2022-08-23T05:46:52;99081.88;;;34.64;59.62
11830;BME280;5972;42.134;24.718;2022-08-23T05:49:19;99081.00;;;35.27;55.56
11830;BME280;5972;42.134;24.718;2022-08-23T05:51:45;99075.19;;;35.50;54.77
11830;BME280;5972;42.134;24.718;2022-08-23T05:54:12;99085.13;;;35.80;52.01
11830;BME280;5972;42.134;24.718;2022-08-23T05:56:41;99086.78;;;36.19;50.54
11830;BME280;5972;42.134;24.718;2022-08-23T05:59:11;99086.06;;;36.56;48.72
11830;BME280;5972;42.134;24.718;2022-08-23T06:01:39;99086.28;;;36.58;48.13
11830;BME280;5972;42.134;24.718;2022-08-23T06:04:08;99077.69;;;36.69;47.57
11830;BME280;5972;42.134;24.718;2022-08-23T06:06:39;99091.63;;;36.99;47.00
11830;BME280;5972;42.134;24.718;2022-08-23T06:09:08;99089.69;;;37.58;45.01
11830;BME280;5972;42.134;24.718;2022-08-23T06:11:36;99095.72;;;38.07;43.10
11830;BME280;5972;42.134;24.718;2022-08-23T06:14:05;99098.88;;;38.16;41.93
11830;BME280;5972;42.134;24.718;2022-08-23T06:16:37;99100.59;;;38.46;40.89
11830;BME280;5972;42.134;24.718;2022-08-23T06:19:06;99083.41;;;38.57;40.25
11830;BME280;5972;42.134;24.718;2022-08-23T06:21:33;99113.16;;;38.84;39.83
11830;BME280;5972;42.134;24.718;2022-08-23T06:24:01;99113.00;;;39.24;39.87
11830;BME280;5972;42.134;24.718;2022-08-23T06:26:31;99102.44;;;39.03;39.93
11830;BME280;5972;42.134;24.718;2022-08-23T06:29:01;99105.38;;;38.38;41.76
11830;BME280;5972;42.134;24.718;2022-08-23T06:31:29;99107.34;;;38.43;42.44
11830;BME280;5972;42.134;24.718;2022-08-23T06:34:16;99101.56;;;37.82;43.42
11830;BME280;5972;42.134;24.718;2022-08-23T06:36:45;99110.84;;;36.82;44.77
11830;BME280;5972;42.134;24.718;2022-08-23T06:39:14;99103.63;;;35.40;50.58
11830;BME280;5972;42.134;24.718;2022-08-23T06:41:41;99126.25;;;34.08;58.26
11830;BME280;5972;42.134;24.718;2022-08-23T06:44:08;99106.88;;;33.05;66.28
11830;BME280;5972;42.134;24.718;2022-08-23T06:46:35;99106.84;;;32.29;73.30
11830;BME280;5972;42.134;24.718;2022-08-23T06:49:03;99116.97;;;31.84;77.93
11830;BME280;5972;42.134;24.718;2022-08-23T06:51:34;99104.28;;;30.99;85.43
11830;BME280;5972;42.134;24.718;2022-08-23T06:54:04;99124.72;;;30.85;87.87
11830;BME280;5972;42.134;24.718;2022-08-23T06:56:32;99122.31;;;30.52;94.87
11830;BME280;5972;42.134;24.718;2022-08-23T06:58:59;99128.47;;;30.22;99.27
11830;BME280;5972;42.134;24.718;2022-08-23T07:01:31;99125.41;;;30.20;100.00
11830;BME280;5972;42.134;24.718;2022-08-23T07:04:01;99124.50;;;29.93;100.00
11830;BME280;5972;42.134;24.718;2022-08-23T07:06:29;99121.09;;;29.54;100.00
11830;BME280;5972;42.134;24.718;2022-08-23T07:08:58;99141.47;;;29.60;100.00
11830;BME280;5972;42.134;24.718;2022-08-23T07:11:25;99144.38;;;29.51;100.00
11830;BME280;5972;42.134;24.718;2022-08-23T07:13:57;99146.88;;;29.49;100.00
11830;BME280;5972;42.134;24.718;2022-08-23T07:16:25;99139.28;;;29.50;100.00
11830;BME280;5972;42.134;24.718;2022-08-23T07:18:57;99106.59;;;29.50;100.00
11830;BME280;5972;42.134;24.718;2022-08-23T07:21:24;99149.63;;;29.79;100.00
11830;BME280;5972;42.134;24.718;2022-08-23T07:23:50;99141.25;;;29.93;100.00
11830;BME280;5972;42.134;24.718;2022-08-23T07:26:19;99139.41;;;30.05;100.00
11830;BME280;5972;42.134;24.718;2022-08-23T07:28:47;99150.03;;;30.21;100.00
11830;BME280;5972;42.134;24.718;2022-08-23T07:31:16;99149.38;;;30.11;98.26
11830;BME280;5972;42.134;24.718;2022-08-23T07:33:44;99155.06;;;30.17;99.66
11830;BME280;5972;42.134;24.718;2022-08-23T07:36:13;99133.91;;;30.10;99.00
11830;BME280;5972;42.134;24.718;2022-08-23T07:38:41;99154.91;;;30.26;100.00
11830;BME280;5972;42.134;24.718;2022-08-23T07:41:08;99147.44;;;30.52;96.73
11830;BME280;5972;42.134;24.718;2022-08-23T07:43:36;99136.31;;;30.78;94.82
11830;BME280;5972;42.134;24.718;2022-08-23T07:46:04;99141.84;;;30.98;91.60
11830;BME280;5972;42.134;24.718;2022-08-23T07:48:31;99136.22;;;31.13;90.71
11830;BME280;5972;42.134;24.718;2022-08-23T07:51:01;99145.69;;;31.47;88.87
11830;BME280;5972;42.134;24.718;2022-08-23T07:53:29;99148.69;;;31.69;84.03
11830;BME280;5972;42.134;24.718;2022-08-23T07:55:56;99152.47;;;31.66;83.32
11830;BME280;5972;42.134;24.718;2022-08-23T07:58:24;99144.59;;;31.65;82.31
11830;BME280;5972;42.134;24.718;2022-08-23T08:00:52;99114.81;;;31.62;81.29
11830;BME280;5972;42.134;24.718;2022-08-23T08:03:19;99146.34;;;31.99;77.31
11830;BME280;5972;42.134;24.718;2022-08-23T08:05:46;99151.13;;;32.25;77.10
11830;BME280;5972;42.134;24.718;2022-08-23T08:08:13;99162.78;;;32.17;79.06
11830;BME280;5972;42.134;24.718;2022-08-23T08:10:41;99152.38;;;32.24;77.82
11830;BME280;5972;42.134;24.718;2022-08-23T08:13:08;99159.91;;;32.49;73.21
11830;BME280;5972;42.134;24.718;2022-08-23T08:15:39;99151.59;;;32.66;72.93
11830;BME280;5972;42.134;24.718;2022-08-23T08:18:08;99138.81;;;32.59;70.66
11830;BME280;5972;42.134;24.718;2022-08-23T08:20:36;99140.97;;;32.33;73.46
11830;BME280;5972;42.134;24.718;2022-08-23T08:23:03;99141.72;;;32.33;76.49
11830;BME280;5972;42.134;24.718;2022-08-23T08:25:33;99159.84;;;32.38;77.12
11830;BME280;5972;42.134;24.718;2022-08-23T08:28:00;99147.09;;;32.37;77.28
11830;BME280;5972;42.134;24.718;2022-08-23T08:30:27;99136.75;;;32.54;72.43
11830;BME280;5972;42.134;24.718;2022-08-23T08:32:54;99150.31;;;32.72;71.62
11830;BME280;5972;42.134;24.718;2022-08-23T08:35:22;99150.91;;;32.87;71.24
11830;BME280;5972;42.134;24.718;2022-08-23T08:37:49;99130.56;;;33.04;70.33
11830;BME280;5972;42.134;24.718;2022-08-23T08:40:19;99152.31;;;33.42;68.82
11830;BME280;5972;42.134;24.718;2022-08-23T08:43:02;99150.50;;;33.89;64.29
11830;BME280;5972;42.134;24.718;2022-08-23T08:45:43;99144.88;;;33.95;61.19
11830;BME280;5972;42.134;24.718;2022-08-23T08:48:14;99149.13;;;34.46;57.77
11830;BME280;5972;42.134;24.718;2022-08-23T08:50:47;99151.38;;;34.70;55.25
11830;BME280;5972;42.134;24.718;2022-08-23T08:53:18;99153.69;;;35.12;53.08
11830;BME280;5972;42.134;24.718;2022-08-23T08:55:50;99151.41;;;35.11;51.82
11830;BME280;5972;42.134;24.718;2022-08-23T08:58:21;99148.72;;;35.29;52.15
11830;BME280;5972;42.134;24.718;2022-08-23T09:00:49;99126.28;;;35.18;52.57
11830;BME280;5972;42.134;24.718;2022-08-23T09:03:18;99135.44;;;35.30;52.35
11830;BME280;5972;42.134;24.718;2022-08-23T09:05:50;99139.31;;;34.80;54.46
11830;BME280;5972;42.134;24.718;2022-08-23T09:08:32;99127.72;;;34.37;53.72
11830;BME280;5972;42.134;24.718;2022-08-23T09:11:03;99139.28;;;33.83;57.78
11830;BME280;5972;42.134;24.718;2022-08-23T09:13:48;99145.66;;;33.39;58.29
11830;BME280;5972;42.134;24.718;2022-08-23T09:16:30;99149.06;;;32.79;63.17
11830;BME280;5972;42.134;24.718;2022-08-23T09:19:00;99142.13;;;32.63;63.60
11830;BME280;5972;42.134;24.718;2022-08-23T09:21:47;99159.34;;;32.45;65.65
11830;BME280;5972;42.134;24.718;2022-08-23T09:24:15;99146.09;;;31.97;69.03
11830;BME280;5972;42.134;24.718;2022-08-23T09:26:42;99148.84;;;31.92;70.61
11830;BME280;5972;42.134;24.718;2022-08-23T09:29:18;99071.94;;;31.45;71.79
11830;BME280;5972;42.134;24.718;2022-08-23T09:31:48;99151.59;;;31.29;78.54
11830;BME280;5972;42.134;24.718;2022-08-23T09:34:21;99123.94;;;31.05;79.63
11830;BME280;5972;42.134;24.718;2022-08-23T09:36:50;99132.09;;;31.34;80.10
11830;BME280;5972;42.134;24.718;2022-08-23T09:39:26;99148.13;;;31.60;77.35
11830;BME280;5972;42.134;24.718;2022-08-23T09:41:53;99132.91;;;32.03;74.83
11830;BME280;5972;42.134;24.718;2022-08-23T09:44:34;99134.81;;;32.71;67.98
11830;BME280;5972;42.134;24.718;2022-08-23T09:47:08;99132.28;;;32.84;65.37
11830;BME280;5972;42.134;24.718;2022-08-23T09:49:38;99119.84;;;32.96;63.62
11830;BME280;5972;42.134;24.718;2022-08-23T09:52:18;99116.88;;;32.57;66.13
11830;BME280;5972;42.134;24.718;2022-08-23T09:54:54;99122.44;;;33.50;62.50
11830;BME280;5972;42.134;24.718;2022-08-23T09:57:24;99125.22;;;34.06;59.49
11830;BME280;5972;42.134;24.718;2022-08-23T09:59:52;99125.69;;;34.38;59.85
11830;BME280;5972;42.134;24.718;2022-08-23T10:02:25;99129.72;;;34.48;54.54
11830;BME280;5972;42.134;24.718;2022-08-23T10:04:59;99128.19;;;34.47;54.01
11830;BME280;5972;42.134;24.718;2022-08-23T10:07:35;99145.25;;;34.60;53.78
11830;BME280;5972;42.134;24.718;2022-08-23T10:10:31;99124.97;;;34.84;53.53
11830;BME280;5972;42.134;24.718;2022-08-23T10:13:03;99134.91;;;34.90;54.12
11830;BME280;5972;42.134;24.718;2022-08-23T10:15:46;99133.03;;;35.04;53.34
11830;BME280;5972;42.134;24.718;2022-08-23T10:18:27;99131.59;;;34.86;52.75
11830;BME280;5972;42.134;24.718;2022-08-23T10:21:02;99113.56;;;34.59;53.21
11830;BME280;5972;42.134;24.718;2022-08-23T10:23:39;99115.72;;;34.89;53.61
11830;BME280;5972;42.134;24.718;2022-08-23T10:26:15;99111.44;;;35.23;51.19
11830;BME280;5972;42.134;24.718;2022-08-23T10:28:52;99121.09;;;34.92;52.74
11830;BME280;5972;42.134;24.718;2022-08-23T10:31:43;99116.56;;;34.78;53.17
11830;BME280;5972;42.134;24.718;2022-08-23T10:34:22;99112.72;;;34.81;52.42
11830;BME280;5972;42.134;24.718;2022-08-23T10:37:01;99119.19;;;34.59;54.15
11830;BME280;5972;42.134;24.718;2022-08-23T10:39:37;99110.41;;;34.85;52.77
11830;BME280;5972;42.134;24.718;2022-08-23T10:42:17;99120.06;;;34.90;52.90
11830;BME280;5972;42.134;24.718;2022-08-23T10:44:50;99101.47;;;34.81;52.52
11830;BME280;5972;42.134;24.718;2022-08-23T10:47:28;99114.06;;;35.10;51.50
11830;BME280;5972;42.134;24.718;2022-08-23T10:50:03;99109.13;;;34.86;52.35
11830;BME280;5972;42.134;24.718;2022-08-23T10:52:33;99106.00;;;34.90;54.06
11830;BME280;5972;42.134;24.718;2022-08-23T10:55:08;99108.38;;;35.27;53.93
11830;BME280;5972;42.134;24.718;2022-08-23T10:57:50;99091.06;;;35.06;52.06
11830;BME280;5972;42.134;24.718;2022-08-23T11:00:21;99108.94;;;35.50;49.68
11830;BME280;5972;42.134;24.718;2022-08-23T11:03:08;99117.03;;;35.29;50.38
11830;BME280;5972;42.134;24.718;2022-08-23T11:05:40;99100.16;;;35.29;51.87
11830;BME280;5972;42.134;24.718;2022-08-23T11:08:10;99087.56;;;35.35;51.26
11830;BME280;5972;42.134;24.718;2022-08-23T11:10:47;99091.47;;;35.57;50.08
11830;BME280;5972;42.134;24.718;2022-08-23T11:13:21;99081.34;;;35.72;49.03
11830;BME280;5972;42.134;24.718;2022-08-23T11:15:56;99084.06;;;35.83;48.95
11830;BME280;5972;42.134;24.718;2022-08-23T11:18:41;99072.78;;;35.59;50.15
11830;BME280;5972;42.134;24.718;2022-08-23T11:24:32;99088.53;;;35.73;50.62
11830;BME280;5972;42.134;24.718;2022-08-23T11:27:02;99067.91;;;35.60;50.11
11830;BME280;5972;42.134;24.718;2022-08-23T11:29:35;99084.06;;;35.83;49.09
11830;BME280;5972;42.134;24.718;2022-08-23T11:32:29;99081.44;;;35.61;50.96
11830;BME280;5972;42.134;24.718;2022-08-23T11:35:03;99079.38;;;35.67;50.33
11830;BME280;5972;42.134;24.718;2022-08-23T11:37:54;99069.56;;;35.74;49.10
11830;BME280;5972;42.134;24.718;2022-08-23T11:40:56;99070.41;;;35.69;49.01
11830;BME280;5972;42.134;24.718;2022-08-23T11:43:30;99068.72;;;35.55;48.81
11830;BME280;5972;42.134;24.718;2022-08-23T11:46:16;99063.81;;;35.31;49.17
11830;BME280;5972;42.134;24.718;2022-08-23T11:48:49;99071.28;;;34.87;51.73
11830;BME280;5972;42.134;24.718;2022-08-23T11:51:27;99065.44;;;34.80;53.15
11830;BME280;5972;42.134;24.718;2022-08-23T11:57:28;99041.94;;;34.31;52.48
11830;BME280;5972;42.134;24.718;2022-08-23T12:00:08;99029.72;;;34.11;55.18
11830;BME280;5972;42.134;24.718;2022-08-23T12:02:49;98984.88;;;33.95;54.74
11830;BME280;5972;42.134;24.718;2022-08-23T12:05:26;99020.47;;;34.33;55.59
11830;BME280;5972;42.134;24.718;2022-08-23T12:08:29;99022.41;;;33.97;58.48
11830;BME280;5972;42.134;24.718;2022-08-23T12:11:01;99021.63;;;34.02;58.83
11830;BME280;5972;42.134;24.718;2022-08-23T12:13:52;98976.97;;;33.99;57.47
11830;BME280;5972;42.134;24.718;2022-08-23T12:16:35;98998.28;;;34.30;58.68
11830;BME280;5972;42.134;24.718;2022-08-23T12:19:08;99007.91;;;34.45;59.28
11830;BME280;5972;42.134;24.718;2022-08-23T12:21:47;98988.47;;;34.47;58.63
11830;BME280;5972;42.134;24.718;2022-08-23T12:24:20;98977.78;;;34.40;55.03
11830;BME280;5972;42.134;24.718;2022-08-23T12:26:58;98983.81;;;34.55;56.27
11830;BME280;5972;42.134;24.718;2022-08-23T12:29:32;98945.53;;;34.52;57.86
11830;BME280;5972;42.134;24.718;2022-08-23T12:32:09;98973.00;;;34.76;53.91
11830;BME280;5972;42.134;24.718;2022-08-23T12:34:48;98973.63;;;34.93;54.46
11830;BME280;5972;42.134;24.718;2022-08-23T12:37:25;98977.63;;;35.03;55.11
11830;BME280;5972;42.134;24.718;2022-08-23T12:39:58;98966.63;;;35.00;54.52
11830;BME280;5972;42.134;24.718;2022-08-23T12:42:28;98982.88;;;34.88;57.17
11830;BME280;5972;42.134;24.718;2022-08-23T12:45:07;98976.06;;;34.73;55.70
11830;BME280;5972;42.134;24.718;2022-08-23T12:47:37;98973.09;;;34.59;55.39
11830;BME280;5972;42.134;24.718;2022-08-23T12:50:25;98966.78;;;34.48;54.91
11830;BME280;5972;42.134;24.718;2022-08-23T12:52:58;98965.84;;;34.29;53.37
11830;BME280;5972;42.134;24.718;2022-08-23T12:55:31;98966.59;;;34.35;53.98
11830;BME280;5972;42.134;24.718;2022-08-23T12:57:58;98961.31;;;34.20;55.28
11830;BME280;5972;42.134;24.718;2022-08-23T13:00:31;98968.47;;;34.15;55.67
11830;BME280;5972;42.134;24.718;2022-08-23T13:03:00;98954.50;;;34.04;52.72
11830;BME280;5972;42.134;24.718;2022-08-23T13:05:36;98960.91;;;33.99;52.55
11830;BME280;5972;42.134;24.718;2022-08-23T13:08:08;98977.88;;;34.18;52.85
11830;BME280;5972;42.134;24.718;2022-08-23T13:10:38;98981.81;;;33.98;53.62
11830;BME280;5972;42.134;24.718;2022-08-23T13:13:09;98981.53;;;34.07;53.32
11830;BME280;5972;42.134;24.718;2022-08-23T13:15:44;98989.63;;;34.16;57.48
11830;BME280;5972;42.134;24.718;2022-08-23T13:18:22;98987.09;;;34.18;62.15
11830;BME280;5972;42.134;24.718;2022-08-23T13:21:14;98951.66;;;34.10;62.92
11830;BME280;5972;42.134;24.718;2022-08-23T13:23:42;98974.09;;;34.15;63.80